createdAt,value
2018-07-25T00:00:45.641Z,13.33
2018-07-25T00:03:14.083Z,12.67
2018-07-25T00:05:42.425Z,11.90
2018-07-25T00:08:10.717Z,11.83
2018-07-25T00:10:45.903Z,12.93
2018-07-25T00:13:15.125Z,12.47
2018-07-25T00:15:44.054Z,11.63
2018-07-25T00:18:15.858Z,12.03
2018-07-25T00:20:51.781Z,13.33
2018-07-25T00:23:23.122Z,11.73
2018-07-25T00:25:58.077Z,11.93
2018-07-25T00:28:26.685Z,13.00
2018-07-25T00:31:08.896Z,11.87
2018-07-25T00:33:46.239Z,12.10
2018-07-25T00:36:20.529Z,12.47
2018-07-25T00:38:52.441Z,11.97
2018-07-25T00:41:30.729Z,12.57
2018-07-25T00:43:59.994Z,11.97
2018-07-25T00:46:33.029Z,11.73
2018-07-25T00:49:01.773Z,11.20
2018-07-25T00:51:30.686Z,11.20
2018-07-25T00:54:01.756Z,11.40
2018-07-25T00:56:30.324Z,12.50
2018-07-25T00:59:00.419Z,11.83
2018-07-25T01:01:30.439Z,11.90
2018-07-25T01:03:58.983Z,11.47
2018-07-25T01:06:30.498Z,11.00
2018-07-25T01:08:59.252Z,11.43
2018-07-25T01:11:37.994Z,12.47
2018-07-25T01:14:08.850Z,12.70
2018-07-25T01:16:43.191Z,11.30
2018-07-25T01:19:22.700Z,11.10
2018-07-25T01:21:54.416Z,10.67
2018-07-25T01:24:33.110Z,11.80
2018-07-25T01:27:12.258Z,11.40
2018-07-25T01:29:46.959Z,11.57
2018-07-25T01:32:15.009Z,12.27
2018-07-25T01:34:43.712Z,11.80
2018-07-25T01:37:15.343Z,11.70
2018-07-25T01:39:43.798Z,10.90
2018-07-25T01:42:12.164Z,12.00
2018-07-25T01:44:42.022Z,12.90
2018-07-25T01:47:10.370Z,11.97
2018-07-25T01:49:38.529Z,12.37
2018-07-25T01:52:09.132Z,12.20
2018-07-25T01:54:40.471Z,13.20
2018-07-25T01:57:09.010Z,12.93
2018-07-25T01:59:41.759Z,14.43
2018-07-25T02:02:12.779Z,13.67
2018-07-25T02:04:41.114Z,14.33
2018-07-25T02:07:09.407Z,12.60
2018-07-25T02:09:38.228Z,13.30
2018-07-25T02:12:08.004Z,11.53
2018-07-25T02:14:40.989Z,11.83
2018-07-25T02:17:13.268Z,10.90
2018-07-25T02:19:48.486Z,11.57
2018-07-25T02:22:56.531Z,11.50
2018-07-25T02:25:25.245Z,11.63
2018-07-25T02:27:54.361Z,12.03
2018-07-25T02:30:30.328Z,11.97
2018-07-25T02:32:58.707Z,12.10
2018-07-25T02:35:28.345Z,11.63
2018-07-25T02:37:58.553Z,11.87
2018-07-25T02:40:48.128Z,10.80
2018-07-25T02:43:23.875Z,10.00
2018-07-25T02:45:54.095Z,11.47
2018-07-25T02:48:28.156Z,11.00
2018-07-25T02:50:56.580Z,12.53
2018-07-25T02:53:28.247Z,11.23
2018-07-25T02:56:01.531Z,11.57
2018-07-25T02:58:39.894Z,11.83
2018-07-25T03:01:13.391Z,12.23
2018-07-25T03:03:44.927Z,12.03
2018-07-25T03:06:16.807Z,11.10
2018-07-25T03:08:45.234Z,10.87
2018-07-25T03:11:17.851Z,10.70
2018-07-25T03:13:53.553Z,12.07
2018-07-25T03:16:26.934Z,10.87
2018-07-25T03:19:04.891Z,10.07
2018-07-25T03:21:34.435Z,10.00
2018-07-25T03:24:03.036Z,12.00
2018-07-25T03:26:38.911Z,10.70
2018-07-25T03:29:09.127Z,10.60
2018-07-25T03:31:40.885Z,11.70
2018-07-25T03:34:13.622Z,12.97
2018-07-25T03:36:44.858Z,11.83
2018-07-25T03:39:18.004Z,11.77
2018-07-25T03:41:55.666Z,10.93
2018-07-25T03:44:32.510Z,10.83
2018-07-25T03:47:02.637Z,11.37
2018-07-25T03:49:37.247Z,10.40
2018-07-25T03:52:08.134Z,11.30
2018-07-25T03:54:43.584Z,10.70
2018-07-25T03:57:16.059Z,11.57
2018-07-25T03:59:45.014Z,11.90
2018-07-25T04:02:13.291Z,11.47
2018-07-25T04:04:44.442Z,11.33
2018-07-25T04:07:13.060Z,11.33
2018-07-25T04:09:41.583Z,10.83
2018-07-25T04:12:10.056Z,10.33
2018-07-25T04:14:39.701Z,10.47
2018-07-25T04:17:08.228Z,9.67
2018-07-25T04:19:36.733Z,10.63
2018-07-25T04:22:04.902Z,10.47
2018-07-25T04:24:33.417Z,10.40
2018-07-25T04:27:05.932Z,11.10
2018-07-25T04:29:35.744Z,11.50
2018-07-25T04:32:05.378Z,13.20
2018-07-25T04:34:37.144Z,12.53
2018-07-25T04:37:10.066Z,12.27
2018-07-25T04:39:41.669Z,12.50
2018-07-25T04:42:10.453Z,12.90
2018-07-25T04:44:47.881Z,10.80
2018-07-25T04:47:19.021Z,11.10
2018-07-25T04:49:50.041Z,11.27
2018-07-25T04:52:24.747Z,11.37
2018-07-25T04:54:54.311Z,10.20
2018-07-25T04:57:23.385Z,11.10
2018-07-25T04:59:51.803Z,9.97
2018-07-25T05:02:20.545Z,9.80
2018-07-25T05:04:48.940Z,9.70
2018-07-25T05:07:17.481Z,11.73
2018-07-25T05:09:48.384Z,11.23
2018-07-25T05:12:28.650Z,11.47
2018-07-25T05:14:58.841Z,11.33
2018-07-25T05:17:32.349Z,11.23
2018-07-25T05:20:04.103Z,10.30
2018-07-25T05:22:33.412Z,11.60
2018-07-25T05:25:08.393Z,10.53
2018-07-25T05:27:39.742Z,10.30
2018-07-25T05:30:08.192Z,10.40
2018-07-25T05:32:39.561Z,9.47
2018-07-25T05:35:07.822Z,11.20
2018-07-25T05:37:36.053Z,11.87
2018-07-25T05:40:04.972Z,10.80
2018-07-25T05:42:36.698Z,11.23
2018-07-25T05:45:09.698Z,11.00
2018-07-25T05:47:41.146Z,11.67
2018-07-25T05:50:14.492Z,10.40
2018-07-25T05:52:44.951Z,9.53
2018-07-25T05:55:13.344Z,10.10
2018-07-25T05:57:46.850Z,9.43
2018-07-25T06:00:17.707Z,10.60
2018-07-25T06:02:46.146Z,10.60
2018-07-25T06:05:14.152Z,10.00
2018-07-25T06:07:49.533Z,9.40
2018-07-25T06:10:19.446Z,9.47
2018-07-25T06:12:49.563Z,10.30
2018-07-25T06:15:17.815Z,11.10
2018-07-25T06:17:48.602Z,10.53
2018-07-25T06:20:18.927Z,9.97
2018-07-25T06:22:48.975Z,10.67
2018-07-25T06:25:17.275Z,9.33
2018-07-25T06:27:47.277Z,9.03
2018-07-25T06:30:15.644Z,9.13
2018-07-25T06:32:44.033Z,9.37
2018-07-25T06:35:12.463Z,8.70
2018-07-25T06:37:40.831Z,9.60
2018-07-25T06:40:09.441Z,9.13
2018-07-25T06:42:37.779Z,7.87
2018-07-25T06:45:06.513Z,8.73
2018-07-25T06:47:34.652Z,9.40
2018-07-25T06:50:03.083Z,7.97
2018-07-25T06:52:33.172Z,7.90
2018-07-25T06:55:01.476Z,7.10
2018-07-25T06:57:29.961Z,7.80
2018-07-25T06:59:59.140Z,7.57
2018-07-25T07:02:27.604Z,6.70
2018-07-25T07:04:56.078Z,8.37
2018-07-25T07:07:24.469Z,7.13
2018-07-25T07:09:52.803Z,6.83
2018-07-25T07:12:21.421Z,6.50
2018-07-25T07:14:50.578Z,7.20
2018-07-25T07:17:18.670Z,6.90
2018-07-25T07:19:47.267Z,7.00
2018-07-25T07:22:15.926Z,7.03
2018-07-25T07:24:47.987Z,7.03
2018-07-25T07:27:16.557Z,6.67
2018-07-25T07:29:46.144Z,8.20
2018-07-25T07:32:14.565Z,7.07
2018-07-25T07:34:43.147Z,7.10
2018-07-25T07:37:13.057Z,6.00
2018-07-25T07:39:46.360Z,6.80
2018-07-25T07:42:14.702Z,6.77
2018-07-25T07:44:43.296Z,6.60
2018-07-25T07:47:13.384Z,7.07
2018-07-25T07:49:44.882Z,7.10
2018-07-25T07:52:15.823Z,7.17
2018-07-25T07:54:45.082Z,6.87
2018-07-25T07:57:19.172Z,6.50
2018-07-25T07:59:52.937Z,6.83
2018-07-25T08:02:27.194Z,6.70
2018-07-25T08:04:55.523Z,6.33
2018-07-25T08:07:23.770Z,5.57
2018-07-25T08:09:52.387Z,6.53
2018-07-25T08:12:24.871Z,6.70
2018-07-25T08:14:53.225Z,6.70
2018-07-25T08:17:23.564Z,5.83
2018-07-25T08:19:51.743Z,6.97
2018-07-25T08:22:21.809Z,6.47
2018-07-25T08:24:51.631Z,6.30
2018-07-25T08:27:26.548Z,6.70
2018-07-25T08:29:55.859Z,7.10
2018-07-25T08:32:29.210Z,6.47
2018-07-25T08:34:58.654Z,6.53
2018-07-25T08:37:27.165Z,6.47
2018-07-25T08:39:56.703Z,7.10
2018-07-25T08:42:25.434Z,7.07
2018-07-25T08:44:54.022Z,6.30
2018-07-25T08:47:23.302Z,6.83
2018-07-25T08:49:54.240Z,6.50
2018-07-25T08:52:22.897Z,6.80
2018-07-25T08:54:52.067Z,6.63
2018-07-25T08:57:20.648Z,6.70
2018-07-25T08:59:49.080Z,6.07
2018-07-25T09:02:17.649Z,7.30
2018-07-25T09:04:46.218Z,6.70
2018-07-25T09:07:14.776Z,6.73
2018-07-25T09:09:44.209Z,6.10
2018-07-25T09:12:12.606Z,6.80
2018-07-25T09:14:41.113Z,6.50
2018-07-25T09:17:09.561Z,7.17
2018-07-25T09:19:38.092Z,6.00
2018-07-25T09:22:06.325Z,6.20
2018-07-25T09:24:34.832Z,6.47
2018-07-25T09:27:03.387Z,6.40
2018-07-25T09:29:31.710Z,6.23
2018-07-25T09:32:01.566Z,6.60
2018-07-25T09:34:29.901Z,6.57
2018-07-25T09:36:58.417Z,6.57
2018-07-25T09:39:26.708Z,5.90
2018-07-25T09:41:56.030Z,6.03
2018-07-25T09:44:24.322Z,6.60
2018-07-25T09:46:52.596Z,6.47
2018-07-25T09:49:22.030Z,6.40
2018-07-25T09:51:51.246Z,6.50
2018-07-25T09:54:23.248Z,5.93
2018-07-25T09:57:01.586Z,6.13
2018-07-25T09:59:30.018Z,6.27
2018-07-25T10:01:58.819Z,5.60
2018-07-25T10:04:32.941Z,5.03
2018-07-25T10:07:06.101Z,5.70
2018-07-25T10:09:37.495Z,6.40
2018-07-25T10:12:13.118Z,5.83
2018-07-25T10:14:43.515Z,5.97
2018-07-25T10:17:12.676Z,5.87
2018-07-25T10:19:42.779Z,5.70
2018-07-25T10:22:11.186Z,5.57
2018-07-25T10:24:39.737Z,5.00
2018-07-25T10:27:10.166Z,4.93
2018-07-25T10:29:38.509Z,5.63
2018-07-25T10:32:07.815Z,5.37
2018-07-25T10:34:36.195Z,5.67
2018-07-25T10:37:04.913Z,6.40
2018-07-25T10:39:34.710Z,5.10
2018-07-25T10:42:03.669Z,5.70
2018-07-25T10:44:34.471Z,5.60
2018-07-25T10:47:03.125Z,5.50
2018-07-25T10:49:33.711Z,4.87
2018-07-25T10:52:02.293Z,4.67
2018-07-25T10:54:31.225Z,5.33
2018-07-25T10:57:00.093Z,4.73
2018-07-25T10:59:28.590Z,4.33
2018-07-25T11:01:57.232Z,4.73
2018-07-25T11:04:25.799Z,4.70
2018-07-25T11:06:58.672Z,4.33
2018-07-25T11:09:27.380Z,4.70
2018-07-25T11:12:06.004Z,4.80
2018-07-25T11:14:40.094Z,4.40
2018-07-25T11:17:13.712Z,4.67
2018-07-25T11:19:46.001Z,4.80
2018-07-25T11:22:32.030Z,4.40
2018-07-25T11:25:06.479Z,5.00
2018-07-25T11:27:46.476Z,6.00
2018-07-25T11:30:15.673Z,4.57
2018-07-25T11:33:14.244Z,4.80
2018-07-25T11:35:44.480Z,4.60
2018-07-25T11:38:15.237Z,4.87
2018-07-25T11:40:43.947Z,5.70
2018-07-25T11:43:14.182Z,5.80
2018-07-25T11:45:49.223Z,5.23
2018-07-25T11:48:23.296Z,5.57
2018-07-25T11:51:00.258Z,5.60
2018-07-25T11:53:32.033Z,6.03
2018-07-25T11:56:04.684Z,6.00
2018-07-25T11:58:33.456Z,5.20
2018-07-25T12:01:04.068Z,5.00
2018-07-25T12:03:32.531Z,4.83
2018-07-25T12:06:01.007Z,5.07
2018-07-25T12:08:32.155Z,4.93
2018-07-25T12:11:01.033Z,4.83
2018-07-25T12:13:29.426Z,5.07
2018-07-25T12:15:57.871Z,4.57
2018-07-25T12:18:26.242Z,4.23
2018-07-25T12:20:54.758Z,5.00
2018-07-25T12:23:23.178Z,5.20
2018-07-25T12:25:53.279Z,4.70
2018-07-25T12:28:21.984Z,5.07
2018-07-25T12:30:50.457Z,4.87
2018-07-25T12:33:18.632Z,4.87
2018-07-25T12:35:47.104Z,4.57
2018-07-25T12:38:15.434Z,5.00
2018-07-25T12:40:45.664Z,4.97
2018-07-25T12:43:15.700Z,5.40
2018-07-25T12:45:46.901Z,5.20
2018-07-25T12:48:16.357Z,5.40
2018-07-25T12:50:44.613Z,5.17
2018-07-25T12:53:13.012Z,4.50
2018-07-25T12:55:41.422Z,4.33
2018-07-25T12:58:09.687Z,4.40
2018-07-25T13:00:38.801Z,4.50
2018-07-25T13:03:07.864Z,4.67
2018-07-25T13:05:38.365Z,4.13
2018-07-25T13:08:07.056Z,3.90
2018-07-25T13:10:35.561Z,4.40
2018-07-25T13:13:04.058Z,4.30
2018-07-25T13:15:32.537Z,4.60
2018-07-25T13:18:00.819Z,4.80
2018-07-25T13:20:29.205Z,4.13
2018-07-25T13:22:58.444Z,3.83
2018-07-25T13:25:28.919Z,4.03
2018-07-25T13:27:57.300Z,3.30
2018-07-25T13:30:25.679Z,3.60
2018-07-25T13:32:54.018Z,3.70
2018-07-25T13:35:24.391Z,3.33
2018-07-25T13:37:53.924Z,3.80
2018-07-25T13:40:22.377Z,3.40
2018-07-25T13:42:54.012Z,3.67
2018-07-25T13:45:22.502Z,4.00
2018-07-25T13:47:52.573Z,4.00
2018-07-25T13:50:21.403Z,4.20
2018-07-25T13:52:49.891Z,4.53
2018-07-25T13:55:18.251Z,4.90
2018-07-25T13:57:46.281Z,4.50
2018-07-25T14:00:14.795Z,4.60
2018-07-25T14:02:43.184Z,5.60
2018-07-25T14:05:11.625Z,5.00
2018-07-25T14:07:41.871Z,4.50
2018-07-25T14:10:10.154Z,6.20
2018-07-25T14:12:38.519Z,5.33
2018-07-25T14:15:06.902Z,5.10
2018-07-25T14:17:35.282Z,5.30
2018-07-25T14:20:09.587Z,5.33
2018-07-25T14:22:37.950Z,4.90
2018-07-25T14:25:06.502Z,5.37
2018-07-25T14:27:34.988Z,5.47
2018-07-25T14:30:03.356Z,5.00
2018-07-25T14:32:31.920Z,5.03
2018-07-25T14:35:00.249Z,4.60
2018-07-25T14:37:31.532Z,3.90
2018-07-25T14:40:00.007Z,3.90
2018-07-25T14:42:30.280Z,4.23
2018-07-25T14:44:58.422Z,4.00
2018-07-25T14:47:28.215Z,3.97
2018-07-25T14:49:56.601Z,4.17
2018-07-25T14:52:24.988Z,4.70
2018-07-25T14:54:53.355Z,3.97
2018-07-25T14:57:23.040Z,5.40
2018-07-25T14:59:51.463Z,4.33
2018-07-25T15:02:19.863Z,4.30
2018-07-25T15:04:47.940Z,4.60
2018-07-25T15:07:21.464Z,4.10
2018-07-25T15:09:51.533Z,4.40
2018-07-25T15:12:25.009Z,4.50
2018-07-25T15:14:53.374Z,4.13
2018-07-25T15:17:28.540Z,3.87
2018-07-25T15:19:56.823Z,4.13
2018-07-25T15:22:25.304Z,4.43
2018-07-25T15:24:53.747Z,4.40
2018-07-25T15:27:22.276Z,4.97
2018-07-25T15:29:51.154Z,5.03
2018-07-25T15:32:20.574Z,4.50
2018-07-25T15:34:49.076Z,4.10
2018-07-25T15:37:17.633Z,4.40
2018-07-25T15:39:47.227Z,4.20
2018-07-25T15:42:15.817Z,4.27
2018-07-25T15:44:46.167Z,3.77
2018-07-25T15:47:14.712Z,4.10
2018-07-25T15:49:44.895Z,4.33
2018-07-25T15:52:13.390Z,4.20
2018-07-25T15:54:53.243Z,3.90
2018-07-25T15:57:21.783Z,4.90
2018-07-25T15:59:50.320Z,4.03
2018-07-25T16:02:19.145Z,5.00
2018-07-25T16:04:50.453Z,5.47
2018-07-25T16:07:19.077Z,4.90
2018-07-25T16:09:50.524Z,4.90
2018-07-25T16:12:22.746Z,5.40
2018-07-25T16:14:53.451Z,4.40
2018-07-25T16:17:24.063Z,4.80
2018-07-25T16:19:56.622Z,5.10
2018-07-25T16:22:24.950Z,5.13
2018-07-25T16:25:00.925Z,4.97
2018-07-25T16:27:32.119Z,4.60
2018-07-25T16:30:00.731Z,5.17
2018-07-25T16:32:29.243Z,5.03
2018-07-25T16:34:57.620Z,6.53
2018-07-25T16:37:26.068Z,4.67
2018-07-25T16:39:54.514Z,4.50
2018-07-25T16:42:22.893Z,5.10
2018-07-25T16:44:51.114Z,5.10
2018-07-25T16:47:21.927Z,4.70
2018-07-25T16:49:50.467Z,4.83
2018-07-25T16:52:26.942Z,4.63
2018-07-25T16:54:55.927Z,4.60
2018-07-25T16:57:26.024Z,4.03
2018-07-25T16:59:58.467Z,5.00
2018-07-25T17:02:27.630Z,4.60
2018-07-25T17:04:57.157Z,4.70
2018-07-25T17:07:27.675Z,4.40
2018-07-25T17:09:59.217Z,4.90
2018-07-25T17:12:29.791Z,3.83
2018-07-25T17:15:01.341Z,3.93
2018-07-25T17:17:32.539Z,4.90
2018-07-25T17:20:05.652Z,5.33
2018-07-25T17:22:36.920Z,4.80
2018-07-25T17:25:10.471Z,4.33
2018-07-25T17:27:39.441Z,4.70
2018-07-25T17:30:08.590Z,4.17
2018-07-25T17:32:38.132Z,4.50
2018-07-25T17:35:09.617Z,4.00
2018-07-25T17:37:41.956Z,5.07
2018-07-25T17:40:10.460Z,4.90
2018-07-25T17:42:44.317Z,4.60
2018-07-25T17:45:12.729Z,4.40
2018-07-25T17:47:41.629Z,4.50
2018-07-25T17:50:10.721Z,4.90
2018-07-25T17:52:39.907Z,5.17
2018-07-25T17:55:08.395Z,4.63
2018-07-25T17:57:36.886Z,4.73
2018-07-25T18:00:07.916Z,5.30
2018-07-25T18:02:43.889Z,4.97
2018-07-25T18:05:13.407Z,4.97
2018-07-25T18:07:43.409Z,4.93
2018-07-25T18:10:12.862Z,5.27
2018-07-25T18:12:41.174Z,4.63
2018-07-25T18:15:10.196Z,5.00
2018-07-25T18:17:38.380Z,4.50
2018-07-25T18:20:07.137Z,4.63
2018-07-25T18:22:37.163Z,5.00
2018-07-25T18:25:06.110Z,4.80
2018-07-25T18:27:34.779Z,4.47
2018-07-25T18:30:03.634Z,4.53
2018-07-25T18:32:32.049Z,4.00
2018-07-25T18:35:00.489Z,4.40
2018-07-25T18:37:33.704Z,3.87
2018-07-25T18:40:02.233Z,4.40
2018-07-25T18:42:32.439Z,4.93
2018-07-25T18:45:00.879Z,4.00
2018-07-25T18:47:30.712Z,4.03
2018-07-25T18:49:59.126Z,4.53
2018-07-25T18:52:27.675Z,4.87
2018-07-25T18:55:01.281Z,4.70
2018-07-25T18:57:29.814Z,4.70
2018-07-25T18:59:58.338Z,5.83
2018-07-25T19:02:27.120Z,5.53
2018-07-25T19:04:57.439Z,4.80
2018-07-25T19:07:29.952Z,4.70
2018-07-25T19:09:58.328Z,4.80
2018-07-25T19:12:26.754Z,4.17
2018-07-25T19:15:01.729Z,4.70
2018-07-25T19:17:32.591Z,5.63
2018-07-25T19:20:03.704Z,4.93
2018-07-25T19:22:32.445Z,5.07
2018-07-25T19:25:00.957Z,5.83
2018-07-25T19:27:30.575Z,5.23
2018-07-25T19:29:59.108Z,4.70
2018-07-25T19:32:27.527Z,4.90
2018-07-25T19:35:00.234Z,4.70
2018-07-25T19:37:28.850Z,4.90
2018-07-25T19:40:01.220Z,4.50
2018-07-25T19:42:29.918Z,6.70
2018-07-25T19:45:00.594Z,5.87
2018-07-25T19:47:32.633Z,5.60
2018-07-25T19:50:04.441Z,5.27
2018-07-25T19:52:32.876Z,5.23
2018-07-25T19:55:03.938Z,5.67
2018-07-25T19:57:39.394Z,6.90
2018-07-25T20:00:07.989Z,7.70
2018-07-25T20:02:36.490Z,6.27
2018-07-25T20:05:05.268Z,5.30
2018-07-25T20:07:34.953Z,5.43
2018-07-25T20:10:04.520Z,5.40
2018-07-25T20:12:33.054Z,5.57
2018-07-25T20:15:06.960Z,5.30
2018-07-25T20:17:36.363Z,5.90
2018-07-25T20:20:07.401Z,4.93
2018-07-25T20:22:35.773Z,5.63
2018-07-25T20:25:04.652Z,5.70
2018-07-25T20:27:36.752Z,5.17
2018-07-25T20:30:10.772Z,6.13
2018-07-25T20:32:39.434Z,6.10
2018-07-25T20:35:07.855Z,6.07
2018-07-25T20:37:37.662Z,6.80
2018-07-25T20:40:06.114Z,7.10
2018-07-25T20:42:34.688Z,6.63
2018-07-25T20:45:03.279Z,7.20
2018-07-25T20:47:32.275Z,7.00
2018-07-25T20:50:01.546Z,6.80
2018-07-25T20:52:30.318Z,7.03
2018-07-25T20:55:01.806Z,7.03
2018-07-25T20:57:36.109Z,7.03
2018-07-25T21:00:04.639Z,6.70
2018-07-25T21:02:33.172Z,6.57
2018-07-25T21:05:06.181Z,6.50
2018-07-25T21:07:37.561Z,7.50
2018-07-25T21:10:07.701Z,6.63
2018-07-25T21:12:41.047Z,7.70
2018-07-25T21:15:14.995Z,7.23
2018-07-25T21:17:46.012Z,9.33
2018-07-25T21:20:26.207Z,7.80
2018-07-25T21:22:55.099Z,7.00
2018-07-25T21:25:26.954Z,6.83
2018-07-25T21:28:03.600Z,7.40
2018-07-25T21:30:35.866Z,7.80
2018-07-25T21:33:13.179Z,7.50
2018-07-25T21:35:46.881Z,8.07
2018-07-25T21:38:18.578Z,6.70
2018-07-25T21:40:54.687Z,7.70
2018-07-25T21:43:26.523Z,7.13
2018-07-25T21:45:59.237Z,6.50
2018-07-25T21:48:27.822Z,7.63
2018-07-25T21:50:59.517Z,6.77
2018-07-25T21:53:31.905Z,7.10
2018-07-25T21:56:01.865Z,7.00
2018-07-25T21:58:31.074Z,7.37
2018-07-25T22:01:05.838Z,6.73
2018-07-25T22:03:34.119Z,6.93
2018-07-25T22:06:02.709Z,6.57
2018-07-25T22:08:36.307Z,6.17
2018-07-25T22:11:08.316Z,7.23
2018-07-25T22:13:36.775Z,7.83
2018-07-25T22:16:12.107Z,7.20
2018-07-25T22:18:46.028Z,7.70
2018-07-25T22:21:18.417Z,6.53
2018-07-25T22:23:49.970Z,7.87
2018-07-25T22:26:54.126Z,8.00
2018-07-25T22:29:26.310Z,8.87
2018-07-25T22:31:56.807Z,8.30
2018-07-25T22:34:31.375Z,8.90
2018-07-25T22:37:06.063Z,8.93
2018-07-25T22:42:30.850Z,9.67
2018-07-25T22:55:51.227Z,6.43
2018-07-25T23:01:15.201Z,6.37
2018-07-25T23:04:03.696Z,6.50
2018-07-25T23:11:07.068Z,6.30
2018-07-25T23:13:51.069Z,6.00
2018-07-25T23:19:23.402Z,7.27
2018-07-25T23:36:59.888Z,7.03
2018-07-25T23:39:52.010Z,6.50
2018-07-25T23:42:39.859Z,7.10
2018-07-25T23:45:24.025Z,6.57
2018-07-25T23:48:04.740Z,7.57
2018-07-25T23:50:34.735Z,7.07
2018-07-25T23:53:33.928Z,7.60
